Time;durP1;ratioP1;P1;durP2;ratioP2;P2;SDS_P1;SDS_P2;PMS_P1;PMS_P2;Temp;Humidity;BMP_temperature;BMP_pressure;BME280_temperature;BME280_humidity;BME280_pressure;Samples;Min_cycle;Max_cycle;Signal;HPM_P1;HPM_P2
2023/10/13 00:01:58;;;;;;;5.13;2.60;;;20.20;99.90;;;;;;5053279;28;20045;-77
2023/10/13 00:04:26;;;;;;;5.72;2.25;;;20.20;99.90;;;;;;5053626;28;20053;-77
2023/10/13 00:06:56;;;;;;;5.50;2.53;;;20.20;99.90;;;;;;5045181;28;20409;-78
2023/10/13 00:09:33;;;;;;;7.30;2.60;;;20.20;99.90;;;;;;5050805;28;20049;-78
2023/10/13 00:12:00;;;;;;;8.00;2.65;;;20.20;99.90;;;;;;5056660;28;20099;-78
2023/10/13 00:14:33;;;;;;;5.85;2.35;;;20.20;99.90;;;;;;5056171;28;20571;-77
2023/10/13 00:17:05;;;;;;;8.13;3.35;;;20.20;99.90;;;;;;5050186;28;20057;-78
2023/10/13 00:19:37;;;;;;;9.10;2.85;;;20.20;99.90;;;;;;5053097;28;20049;-77
2023/10/13 00:22:09;;;;;;;6.22;2.50;;;20.20;99.90;;;;;;5042718;28;20500;-78
2023/10/13 00:24:47;;;;;;;7.15;2.55;;;20.20;99.90;;;;;;5051259;28;20046;-78
2023/10/13 00:32:53;;;;;;;10.52;3.85;;;20.10;99.90;;;;;;5053039;28;20516;-78
2023/10/13 00:35:36;;;;;;;5.32;2.78;;;20.10;99.90;;;;;;5045883;28;20551;-78
2023/10/13 00:38:04;;;;;;;6.85;3.33;;;20.00;99.90;;;;;;5044301;28;20111;-78
2023/10/13 00:46:06;;;;;;;10.60;3.67;;;19.90;99.90;;;;;;5051251;28;20072;-78
2023/10/13 00:48:42;;;;;;;10.55;3.08;;;19.90;99.90;;;;;;5053774;28;20056;-78
2023/10/13 00:51:18;;;;;;;4.85;3.20;;;19.80;99.90;;;;;;5042253;28;20049;-78
2023/10/13 00:53:47;;;;;;;7.32;3.40;;;19.80;99.90;;;;;;5054370;28;20049;-77
2023/10/13 00:56:26;;;;;;;9.43;3.45;;;19.70;99.90;;;;;;5035377;28;20649;-78
2023/10/13 00:58:57;;;;;;;8.27;3.55;;;19.60;99.90;;;;;;5047547;28;20097;-77
2023/10/13 01:01:32;;;;;;;9.23;3.05;;;19.60;99.90;;;;;;5046858;28;20045;-78
2023/10/13 01:04:00;;;;;;;8.05;2.88;;;19.50;99.90;;;;;;5049351;28;20110;-77
2023/10/13 01:06:27;;;;;;;9.40;3.33;;;19.50;99.90;;;;;;5041060;28;20054;-78
2023/10/13 01:09:00;;;;;;;6.95;3.13;;;19.40;99.90;;;;;;5054441;28;20044;-78
2023/10/13 01:11:29;;;;;;;7.90;3.03;;;19.40;99.90;;;;;;5052251;28;20139;-78
2023/10/13 01:13:57;;;;;;;10.43;3.25;;;19.30;99.90;;;;;;5046976;28;20156;-78
2023/10/13 01:16:26;;;;;;;10.27;3.88;;;19.20;99.90;;;;;;5044562;28;20045;-78
2023/10/13 01:18:59;;;;;;;6.25;3.15;;;19.20;99.90;;;;;;5049001;28;20070;-78
2023/10/13 01:21:27;;;;;;;7.60;3.47;;;19.10;99.90;;;;;;5040940;28;20080;-77
2023/10/13 01:23:54;;;;;;;7.20;3.60;;;19.10;99.90;;;;;;5051972;28;20053;-78
2023/10/13 01:26:23;;;;;;;5.53;3.25;;;19.00;99.90;;;;;;5051245;28;20476;-78
2023/10/13 01:28:51;;;;;;;11.00;3.30;;;18.90;99.90;;;;;;5051206;28;20470;-77
2023/10/13 01:31:26;;;;;;;9.48;2.90;;;18.90;99.90;;;;;;5043498;28;20053;-77
2023/10/13 01:33:54;;;;;;;6.93;3.03;;;18.80;99.90;;;;;;5048973;28;20143;-77
2023/10/13 01:36:22;;;;;;;7.68;3.42;;;18.80;99.90;;;;;;5038058;28;20425;-77
2023/10/13 01:38:49;;;;;;;8.05;2.70;;;18.70;99.90;;;;;;5056222;28;20394;-77
2023/10/13 01:41:17;;;;;;;5.57;3.22;;;18.70;99.90;;;;;;5049638;28;20057;-77
2023/10/13 01:43:43;;;;;;;7.40;2.97;;;18.70;99.90;;;;;;5050104;28;20049;-77
2023/10/13 01:46:13;;;;;;;6.80;3.08;;;18.60;99.90;;;;;;5041807;28;20057;-77
2023/10/13 01:48:40;;;;;;;4.35;3.15;;;18.60;99.90;;;;;;5030599;28;20045;-78
2023/10/13 01:51:10;;;;;;;5.95;2.50;;;18.60;99.90;;;;;;5040921;28;20445;-77
2023/10/13 01:53:37;;;;;;;6.75;2.95;;;18.50;99.90;;;;;;5050676;28;20483;-77
2023/10/13 01:56:10;;;;;;;8.27;3.25;;;18.50;99.90;;;;;;5048427;28;20099;-77
2023/10/13 01:58:41;;;;;;;6.10;3.00;;;18.50;99.90;;;;;;5048619;28;20053;-78
2023/10/13 02:01:11;;;;;;;8.00;2.90;;;18.40;99.90;;;;;;5040644;28;20144;-78
2023/10/13 02:03:48;;;;;;;11.43;3.20;;;18.40;99.90;;;;;;5046898;28;20072;-78
2023/10/13 02:06:23;;;;;;;9.65;2.78;;;18.30;99.90;;;;;;5028151;28;20048;-78
2023/10/13 02:08:56;;;;;;;7.00;3.10;;;18.30;99.90;;;;;;5051856;28;20049;-78
2023/10/13 02:11:24;;;;;;;5.72;2.85;;;18.30;99.90;;;;;;5030894;28;20393;-77
2023/10/13 02:13:51;;;;;;;6.32;2.58;;;18.20;99.90;;;;;;5046797;28;20092;-77
2023/10/13 02:16:22;;;;;;;6.72;2.95;;;18.20;99.90;;;;;;5043524;28;20107;-78
2023/10/13 02:18:52;;;;;;;6.30;2.72;;;18.20;99.90;;;;;;5047175;28;20045;-77
2023/10/13 02:21:19;;;;;;;5.07;2.83;;;18.10;99.90;;;;;;5050611;28;20052;-78
2023/10/13 02:23:46;;;;;;;10.38;3.53;;;18.10;99.90;;;;;;5050896;28;20108;-77
2023/10/13 02:26:15;;;;;;;7.70;3.17;;;18.00;99.90;;;;;;5049452;28;20510;-77
2023/10/13 02:28:50;;;;;;;5.25;2.40;;;18.00;99.90;;;;;;5049304;28;20087;-77
2023/10/13 02:31:19;;;;;;;10.90;3.33;;;18.00;99.90;;;;;;5044746;28;20095;-78
2023/10/13 02:33:46;;;;;;;10.90;3.00;;;17.90;99.90;;;;;;5046254;28;20045;-78
2023/10/13 02:36:13;;;;;;;8.25;3.03;;;17.90;99.90;;;;;;5053584;28;20128;-77
2023/10/13 02:41:18;;;;;;;5.18;2.65;;;17.80;99.90;;;;;;5047250;28;20056;-77
2023/10/13 02:43:45;;;;;;;10.40;3.33;;;17.80;99.90;;;;;;5045648;28;20050;-78
2023/10/13 02:46:15;;;;;;;5.85;2.97;;;17.80;99.90;;;;;;5040596;28;20045;-77
2023/10/13 02:48:45;;;;;;;;;;;17.80;99.90;;;;;;5050708;28;20080;-77
2023/10/13 02:51:16;;;;;;;9.02;3.35;;;17.70;99.90;;;;;;5050857;28;19930;-77
2023/10/13 02:53:49;;;;;;;6.15;2.88;;;17.70;99.90;;;;;;5047777;28;20049;-78
2023/10/13 02:56:23;;;;;;;7.10;3.30;;;17.60;99.90;;;;;;5045293;28;20123;-78
2023/10/13 02:58:56;;;;;;;10.65;2.97;;;17.60;99.90;;;;;;5045170;28;20049;-77
2023/10/13 03:01:33;;;;;;;9.32;2.60;;;17.60;99.90;;;;;;5041725;28;20524;-77
2023/10/13 03:04:03;;;;;;;8.88;2.97;;;17.60;99.90;;;;;;5052612;28;20056;-77
2023/10/13 03:06:33;;;;;;;4.03;2.78;;;17.50;99.90;;;;;;5052550;28;20139;-78
2023/10/13 03:09:14;;;;;;;5.30;2.93;;;17.40;99.90;;;;;;5046368;28;20143;-77
2023/10/13 03:11:51;;;;;;;7.60;2.88;;;17.40;99.90;;;;;;5048507;28;20049;-77
2023/10/13 03:14:31;;;;;;;11.43;3.20;;;17.40;99.90;;;;;;5044996;28;20045;-78
2023/10/13 03:17:08;;;;;;;4.10;2.63;;;17.30;99.90;;;;;;5049778;28;20068;-78
2023/10/13 03:19:36;;;;;;;6.93;3.30;;;17.30;99.90;;;;;;5049622;28;20049;-78
2023/10/13 03:22:11;;;;;;;7.00;2.97;;;17.30;99.90;;;;;;5049500;28;20579;-78
2023/10/13 03:24:45;;;;;;;7.35;2.72;;;17.20;99.90;;;;;;5046497;28;20366;-77
2023/10/13 03:27:24;;;;;;;8.80;2.95;;;17.20;99.90;;;;;;5051117;28;20110;-78
2023/10/13 03:29:54;;;;;;;9.02;2.92;;;17.20;99.90;;;;;;5042830;28;20042;-78
2023/10/13 03:32:26;;;;;;;10.70;3.83;;;17.20;99.90;;;;;;5055296;28;20512;-78
2023/10/13 03:37:40;;;;;;;5.97;2.97;;;17.10;99.90;;;;;;5050725;28;20049;-78
2023/10/13 03:45:39;;;;;;;8.75;3.17;;;17.10;99.90;;;;;;5045655;28;20050;-77
2023/10/13 03:51:10;;;;;;;5.97;3.22;;;17.00;99.90;;;;;;5054002;28;20111;-77
2023/10/13 03:53:52;;;;;;;6.15;3.08;;;17.00;99.90;;;;;;5044531;28;20040;-77
2023/10/13 03:56:27;;;;;;;8.68;3.10;;;17.00;99.90;;;;;;5048518;28;20041;-78
2023/10/13 04:01:47;;;;;;;5.78;3.00;;;16.90;99.90;;;;;;5051618;28;20048;-77
2023/10/13 04:17:29;;;;;;;6.65;3.05;;;16.80;99.90;;;;;;5049944;28;20052;-78
2023/10/13 04:36:16;;;;;;;6.35;2.95;;;16.50;99.90;;;;;;5050282;28;20489;-77
2023/10/13 04:38:57;;;;;;;9.60;3.30;;;16.50;99.90;;;;;;5041065;28;20055;-77
2023/10/13 04:41:43;;;;;;;;;;;16.50;99.90;;;;;;5047179;28;20042;-77
2023/10/13 04:49:29;;;;;;;6.18;3.65;;;16.40;99.90;;;;;;5049439;28;20043;-77
2023/10/13 04:57:34;;;;;;;6.85;3.67;;;16.30;99.90;;;;;;5046248;28;20153;-77
2023/10/13 05:51:33;;;;;;;9.65;3.47;;;15.80;99.90;;;;;;5042072;28;20049;-78
2023/10/13 06:30:04;;;;;;;9.77;3.47;;;15.70;99.90;;;;;;5050109;28;20104;-78
2023/10/13 06:32:32;;;;;;;10.18;3.92;;;15.80;99.90;;;;;;5045368;28;20077;-78
2023/10/13 06:35:05;;;;;;;16.02;3.92;;;15.80;99.90;;;;;;5043537;28;20103;-78
2023/10/13 06:37:32;;;;;;;13.70;3.85;;;15.80;99.90;;;;;;5041475;28;20045;-78
2023/10/13 06:43:03;;;;;;;14.57;4.47;;;15.90;99.90;;;;;;5046552;28;20045;-78
2023/10/13 06:45:35;;;;;;;12.07;4.10;;;15.90;99.90;;;;;;5043693;28;20052;-79
2023/10/13 06:48:04;;;;;;;15.25;3.65;;;15.90;99.90;;;;;;5042864;28;20133;-79
2023/10/13 06:50:39;;;;;;;16.30;4.30;;;15.90;99.90;;;;;;5030396;28;20468;-78
2023/10/13 06:53:05;;;;;;;7.82;3.33;;;16.00;99.90;;;;;;5052212;28;20049;-78
2023/10/13 06:55:35;;;;;;;14.00;3.60;;;16.00;99.90;;;;;;5046154;28;20080;-78
2023/10/13 06:58:02;;;;;;;15.63;5.43;;;16.00;99.90;;;;;;5047408;28;20042;-78
2023/10/13 07:00:34;;;;;;;11.68;4.00;;;16.10;99.90;;;;;;5043099;28;20519;-78
2023/10/13 07:03:17;;;;;;;14.02;4.10;;;16.10;99.90;;;;;;5043000;28;20133;-78
2023/10/13 07:05:48;;;;;;;9.52;3.47;;;16.10;99.90;;;;;;5047952;28;20424;-78
2023/10/13 07:08:25;;;;;;;10.32;3.40;;;16.20;99.90;;;;;;5054379;28;20059;-78
2023/10/13 07:11:08;;;;;;;10.25;3.25;;;16.20;99.90;;;;;;5044262;28;20049;-78
2023/10/13 07:13:39;;;;;;;10.57;3.20;;;16.30;99.90;;;;;;5046794;28;20052;-78
2023/10/13 07:16:12;;;;;;;11.38;3.00;;;16.30;99.90;;;;;;5043245;28;20428;-78
2023/10/13 07:18:54;;;;;;;14.60;4.07;;;16.40;99.90;;;;;;5049331;28;20053;-79
2023/10/13 07:21:29;;;;;;;9.88;3.97;;;16.40;99.90;;;;;;5048830;28;20052;-78
2023/10/13 07:24:08;;;;;;;9.50;3.10;;;16.50;99.90;;;;;;5048033;28;20041;-78
2023/10/13 07:26:42;;;;;;;13.50;3.58;;;16.50;99.90;;;;;;5043366;28;20104;-78
2023/10/13 07:29:10;;;;;;;10.18;3.42;;;16.60;99.90;;;;;;5049153;28;20072;-78
2023/10/13 07:31:44;;;;;;;9.57;3.22;;;16.70;99.90;;;;;;5037451;28;20045;-78
2023/10/13 07:34:26;;;;;;;14.40;2.88;;;16.80;99.90;;;;;;5053987;28;20057;-78
2023/10/13 07:36:59;;;;;;;12.45;3.30;;;16.90;99.90;;;;;;5035731;28;20512;-78
2023/10/13 07:39:34;;;;;;;17.90;4.18;;;17.00;99.90;;;;;;5046744;28;20041;-78
2023/10/13 07:42:05;;;;;;;13.05;3.97;;;17.10;99.90;;;;;;5047832;28;20080;-79
2023/10/13 07:44:33;;;;;;;;;;;17.20;99.90;;;;;;5050446;28;20049;-78
2023/10/13 07:47:04;;;;;;;15.07;3.42;;;17.40;99.90;;;;;;5039719;28;19925;-78
2023/10/13 07:49:36;;;;;;;18.23;3.33;;;17.50;99.90;;;;;;5034565;28;20435;-78
2023/10/13 07:57:54;;;;;;;12.48;2.85;;;17.70;99.90;;;;;;5041916;28;20084;-78
2023/10/13 08:00:38;;;;;;;10.90;3.22;;;17.80;99.90;;;;;;5043690;28;20093;-78
2023/10/13 08:03:31;;;;;;;17.85;3.30;;;17.90;99.90;;;;;;5046262;28;20398;-78
2023/10/13 08:05:58;;;;;;;17.02;3.28;;;18.00;99.90;;;;;;5050924;28;20452;-78
2023/10/13 08:08:26;;;;;;;14.60;3.22;;;18.10;99.90;;;;;;5053819;28;20048;-78
2023/10/13 08:11:00;;;;;;;16.10;3.03;;;18.20;99.90;;;;;;5044675;28;20045;-79
2023/10/13 08:13:27;;;;;;;13.40;3.58;;;18.30;99.90;;;;;;5033474;28;20500;-79
2023/10/13 08:15:54;;;;;;;11.70;3.20;;;18.40;99.90;;;;;;5043874;28;20045;-78
2023/10/13 08:18:30;;;;;;;10.80;3.30;;;18.50;99.90;;;;;;5055609;28;20068;-78
2023/10/13 08:21:03;;;;;;;12.32;2.45;;;18.50;99.90;;;;;;5051470;28;20045;-78
2023/10/13 08:23:57;;;;;;;12.95;2.53;;;18.70;99.90;;;;;;5047877;28;20037;-76
2023/10/13 08:26:29;;;;;;;12.85;2.72;;;18.80;99.90;;;;;;5041502;28;20536;-76
2023/10/13 08:32:14;;;;;;;13.40;2.40;;;19.10;99.90;;;;;;5043755;28;20049;-76
2023/10/13 08:43:08;;;;;;;7.70;2.70;;;19.70;99.90;;;;;;5047261;28;20048;-77
2023/10/13 08:53:28;;;;;;;9.50;2.30;;;20.40;99.90;;;;;;5050722;28;20060;-77
2023/10/13 08:56:04;;;;;;;6.68;2.83;;;20.50;99.90;;;;;;5039462;28;20394;-77
2023/10/13 09:04:22;;;;;;;11.13;2.70;;;20.80;99.90;;;;;;5047099;28;20072;-77
2023/10/13 09:12:18;;;;;;;10.40;2.40;;;21.10;99.90;;;;;;5047699;28;20131;-78
2023/10/13 09:14:57;;;;;;;12.32;3.05;;;21.10;99.90;;;;;;5051822;28;20117;-77
2023/10/13 09:17:34;;;;;;;10.70;2.55;;;21.20;99.90;;;;;;5057733;28;20056;-77
2023/10/13 09:25:34;;;;;;;13.23;2.40;;;21.30;99.90;;;;;;5042477;28;20403;-78
2023/10/13 09:28:14;;;;;;;6.30;2.40;;;21.40;99.90;;;;;;5050611;28;20075;-77
2023/10/13 09:30:49;;;;;;;8.75;2.22;;;21.50;99.90;;;;;;5053076;28;20045;-77
2023/10/13 09:33:28;;;;;;;10.27;2.90;;;21.60;99.90;;;;;;5053205;28;20049;-78
2023/10/13 09:35:59;;;;;;;6.03;2.17;;;21.60;99.90;;;;;;5046849;28;20718;-77
2023/10/13 09:38:28;;;;;;;5.13;2.28;;;21.70;99.90;;;;;;5050691;28;20504;-77
2023/10/13 09:40:57;;;;;;;4.00;2.00;;;21.70;99.90;;;;;;5040167;28;20063;-78
2023/10/13 09:43:26;;;;;;;4.97;1.73;;;21.80;99.90;;;;;;5056066;28;20150;-78
2023/10/13 09:46:02;;;;;;;7.70;1.83;;;21.80;99.90;;;;;;5052103;28;20492;-77
2023/10/13 09:48:40;;;;;;;6.30;2.08;;;21.90;99.90;;;;;;5049986;28;20045;-76
2023/10/13 09:51:14;;;;;;;6.65;2.20;;;22.00;99.90;;;;;;5047770;28;20056;-77
2023/10/13 09:53:53;;;;;;;8.25;2.30;;;22.00;99.90;;;;;;5044774;28;20107;-77
2023/10/13 09:56:54;;;;;;;8.30;2.20;;;22.10;99.90;;;;;;5048160;28;20040;-77
2023/10/13 09:59:52;;;;;;;7.80;2.20;;;22.10;99.90;;;;;;5055005;28;20076;-77
2023/10/13 10:02:29;;;;;;;8.23;2.08;;;22.10;99.90;;;;;;5054440;28;20045;-78
2023/10/13 10:05:12;;;;;;;6.40;2.35;;;22.20;99.90;;;;;;5046029;28;20037;-77
2023/10/13 10:07:40;;;;;;;7.80;1.90;;;22.20;99.90;;;;;;5050771;28;20049;-78
2023/10/13 10:10:11;;;;;;;7.00;2.45;;;22.30;99.90;;;;;;5039440;28;20140;-78
2023/10/13 10:12:52;;;;;;;8.27;2.78;;;22.30;99.90;;;;;;5050143;28;20561;-78
2023/10/13 10:15:35;;;;;;;5.80;1.98;;;22.40;99.90;;;;;;5037713;28;20053;-78
2023/10/13 10:18:03;;;;;;;7.47;2.42;;;22.50;99.90;;;;;;5045321;28;20084;-77
2023/10/13 10:20:47;;;;;;;6.82;2.28;;;22.50;99.90;;;;;;5029238;28;20043;-78
2023/10/13 10:23:28;;;;;;;10.02;1.80;;;22.50;99.90;;;;;;5044997;28;20099;-77
2023/10/13 10:26:08;;;;;;;8.88;2.28;;;22.60;99.90;;;;;;5043312;28;20059;-78
2023/10/13 10:28:41;;;;;;;4.60;1.95;;;22.60;99.90;;;;;;5044686;28;20053;-78
2023/10/13 10:31:12;;;;;;;7.13;1.98;;;22.70;99.90;;;;;;5049149;28;20111;-78
2023/10/13 10:33:39;;;;;;;5.50;2.03;;;22.70;99.90;;;;;;5041620;28;20045;-77
2023/10/13 10:36:06;;;;;;;6.18;2.17;;;22.70;99.90;;;;;;5044517;28;20421;-78
2023/10/13 10:38:37;;;;;;;7.07;2.50;;;22.70;99.90;;;;;;5043213;28;20073;-78
2023/10/13 10:41:05;;;;;;;6.72;2.50;;;22.70;99.90;;;;;;5052242;28;20041;-77
2023/10/13 10:43:47;;;;;;;5.40;2.25;;;22.70;99.90;;;;;;5053746;28;20094;-78
2023/10/13 10:46:25;;;;;;;4.82;2.17;;;22.80;99.90;;;;;;5051373;28;20463;-77
2023/10/13 10:48:56;;;;;;;7.32;2.72;;;22.90;99.90;;;;;;5046835;28;20049;-78
2023/10/13 10:51:23;;;;;;;9.93;2.70;;;23.00;99.90;;;;;;5046604;28;20107;-78
2023/10/13 10:53:56;;;;;;;7.45;2.67;;;23.10;99.90;;;;;;5045267;28;20076;-77
2023/10/13 10:56:25;;;;;;;7.70;2.60;;;23.10;99.90;;;;;;5053336;28;20048;-77
2023/10/13 10:58:56;;;;;;;11.03;2.40;;;23.10;99.90;;;;;;5046947;28;20124;-78
2023/10/13 11:01:25;;;;;;;5.15;2.13;;;23.10;99.90;;;;;;5049847;28;20076;-77
2023/10/13 11:03:59;;;;;;;6.70;2.70;;;23.20;99.90;;;;;;5028273;28;20132;-78
2023/10/13 11:06:27;;;;;;;6.57;2.60;;;23.30;99.90;;;;;;5044621;28;20056;-77
2023/10/13 11:09:18;;;;;;;9.73;2.80;;;23.30;99.90;;;;;;5047468;28;20466;-78
2023/10/13 11:11:46;;;;;;;6.50;2.58;;;23.40;99.90;;;;;;5047089;28;20534;-77
2023/10/13 11:14:27;;;;;;;5.70;2.00;;;23.40;99.90;;;;;;5046238;28;20056;-78
2023/10/13 11:17:00;;;;;;;7.78;2.35;;;23.50;99.90;;;;;;5047376;28;20115;-78
2023/10/13 11:19:38;;;;;;;8.77;2.50;;;23.50;99.90;;;;;;5043189;28;20073;-78
2023/10/13 11:22:41;;;;;;;9.00;2.47;;;23.50;99.90;;;;;;5048177;28;20076;-78
2023/10/13 11:25:12;;;;;;;6.53;2.47;;;23.60;99.90;;;;;;5052790;28;20077;-78
2023/10/13 11:30:14;;;;;;;4.05;2.28;;;23.60;99.90;;;;;;5048886;28;20107;-78
2023/10/13 11:32:42;;;;;;;8.85;2.88;;;23.60;99.90;;;;;;5045525;28;20045;-77
2023/10/13 11:35:25;;;;;;;6.18;2.03;;;23.70;99.90;;;;;;5044561;28;20049;-78
2023/10/13 11:38:12;;;;;;;4.85;2.45;;;23.70;99.90;;;;;;5039161;28;20045;-77
2023/10/13 11:43:25;;;;;;;5.93;2.50;;;23.70;99.90;;;;;;5051806;28;20049;-78
2023/10/13 11:46:12;;;;;;;11.02;3.10;;;23.70;99.90;;;;;;5052878;28;20082;-78
2023/10/13 11:48:46;;;;;;;7.43;3.08;;;23.80;99.90;;;;;;5044232;28;20041;-77
2023/10/13 11:51:17;;;;;;;10.98;2.65;;;23.90;99.90;;;;;;5058761;28;20049;-78
2023/10/13 11:53:45;;;;;;;7.50;3.17;;;23.90;99.90;;;;;;5051737;28;20124;-77
2023/10/13 11:56:11;;;;;;;7.93;2.45;;;24.00;99.90;;;;;;5052221;28;20056;-78
2023/10/13 11:58:39;;;;;;;7.25;2.45;;;24.00;99.90;;;;;;5050974;28;20470;-78
2023/10/13 12:11:50;;;;;;;6.53;2.65;;;24.10;99.90;;;;;;5051318;28;20044;-78
2023/10/13 12:16:50;;;;;;;10.38;2.75;;;24.20;99.90;;;;;;5050413;28;20044;-78
2023/10/13 12:19:23;;;;;;;8.65;2.72;;;24.20;99.90;;;;;;5039731;28;20497;-78
2023/10/13 12:21:54;;;;;;;9.82;3.08;;;24.30;99.90;;;;;;5042552;28;20045;-78
2023/10/13 12:24:39;;;;;;;6.85;2.88;;;24.30;99.90;;;;;;5034079;28;20048;-78
2023/10/13 12:27:19;;;;;;;7.65;2.50;;;24.30;99.90;;;;;;5046485;28;20516;-77
2023/10/13 12:29:46;;;;;;;;;;;24.30;99.90;;;;;;5050286;28;20053;-77
2023/10/13 12:32:14;;;;;;;9.32;3.83;;;24.40;99.90;;;;;;5046045;28;20312;-78
2023/10/13 12:37:39;;;;;;;8.45;2.40;;;24.40;99.90;;;;;;5053307;28;20127;-78
2023/10/13 12:54:04;;;;;;;6.05;2.50;;;24.70;99.90;;;;;;5052462;28;20044;-78
2023/10/13 12:56:31;;;;;;;4.15;2.60;;;24.70;99.90;;;;;;5049667;28;20045;-78
2023/10/13 12:58:58;;;;;;;4.57;2.17;;;24.70;99.90;;;;;;5044831;28;20102;-78
2023/10/13 13:01:32;;;;;;;8.45;2.50;;;24.70;99.90;;;;;;5047365;28;20124;-77
2023/10/13 13:04:03;;;;;;;8.75;2.33;;;24.70;99.90;;;;;;5053907;28;20049;-78
2023/10/13 13:06:30;;;;;;;;;;;24.80;99.90;;;;;;5052811;28;20056;-78
2023/10/13 13:08:59;;;;;;;8.50;2.22;;;24.80;99.90;;;;;;5051614;28;19925;-78
2023/10/13 13:11:29;;;;;;;4.10;2.25;;;24.80;99.90;;;;;;5048669;28;20187;-78
2023/10/13 13:13:56;;;;;;;6.00;2.30;;;24.70;99.90;;;;;;5046495;28;20096;-78
2023/10/13 13:16:30;;;;;;;16.05;2.58;;;24.70;99.90;;;;;;5049267;28;20054;-78
2023/10/13 13:18:57;;;;;;;8.18;3.05;;;24.70;99.90;;;;;;5054579;28;20090;-78
2023/10/13 13:21:24;;;;;;;8.00;2.40;;;24.80;99.90;;;;;;5051625;28;20068;-78
2023/10/13 13:23:54;;;;;;;5.18;2.17;;;24.80;99.90;;;;;;5053638;28;20044;-77
2023/10/13 13:26:22;;;;;;;6.10;2.40;;;24.80;99.90;;;;;;5047420;28;20480;-78
2023/10/13 13:28:52;;;;;;;8.73;2.05;;;24.90;99.90;;;;;;5043590;28;20045;-77
2023/10/13 13:31:25;;;;;;;12.70;2.40;;;24.90;99.90;;;;;;5052896;28;20080;-79
2023/10/13 13:33:53;;;;;;;7.95;2.53;;;25.00;99.90;;;;;;5056875;28;20458;-78
2023/10/13 13:36:19;;;;;;;6.90;2.30;;;25.10;99.90;;;;;;5048126;28;20084;-78
2023/10/13 13:38:48;;;;;;;7.25;2.20;;;25.10;99.90;;;;;;5051168;28;20507;-77
2023/10/13 13:41:16;;;;;;;10.38;2.42;;;25.10;99.90;;;;;;5044931;28;20103;-78
2023/10/13 13:43:55;;;;;;;10.07;2.50;;;25.10;99.90;;;;;;5043137;28;20044;-78
2023/10/13 13:46:32;;;;;;;10.82;2.13;;;25.20;99.90;;;;;;5054214;28;20045;-78
2023/10/13 13:49:00;;;;;;;8.10;2.10;;;25.20;99.90;;;;;;5052744;28;20045;-78
2023/10/13 13:51:28;;;;;;;8.95;2.08;;;25.10;99.90;;;;;;5048824;28;20044;-78
2023/10/13 13:53:56;;;;;;;5.68;2.25;;;25.10;99.90;;;;;;5049068;28;20037;-78
2023/10/13 13:56:28;;;;;;;8.82;2.30;;;25.10;99.90;;;;;;5045752;28;20064;-78
2023/10/13 13:59:06;;;;;;;6.45;2.25;;;25.10;99.90;;;;;;5047522;28;20040;-78
2023/10/13 14:01:37;;;;;;;8.57;2.33;;;25.10;99.90;;;;;;5054731;28;20044;-78
2023/10/13 14:04:06;;;;;;;5.90;2.25;;;25.10;99.90;;;;;;5053877;28;20097;-78
2023/10/13 14:06:34;;;;;;;9.50;2.60;;;25.10;99.90;;;;;;5048634;28;20132;-78
2023/10/13 14:09:14;;;;;;;13.13;2.65;;;25.10;99.90;;;;;;5050676;28;20067;-78
2023/10/13 14:14:13;;;;;;;8.40;2.47;;;25.10;99.90;;;;;;5052158;28;20044;-78
2023/10/13 14:16:44;;;;;;;7.22;2.20;;;25.10;99.90;;;;;;5052864;28;20054;-78
2023/10/13 14:19:12;;;;;;;11.05;2.60;;;25.10;99.90;;;;;;5053499;28;20140;-77
2023/10/13 14:21:38;;;;;;;7.20;2.28;;;25.10;99.90;;;;;;5046101;28;20117;-77
2023/10/13 14:24:12;;;;;;;5.88;2.47;;;25.00;99.90;;;;;;5049486;28;20052;-78
2023/10/13 14:26:43;;;;;;;4.97;2.85;;;25.00;99.90;;;;;;5043719;28;20068;-78
2023/10/13 14:29:14;;;;;;;8.48;2.40;;;25.00;99.90;;;;;;5051575;28;20044;-79
2023/10/13 14:31:41;;;;;;;9.00;2.50;;;25.00;99.90;;;;;;5034593;28;20425;-78
2023/10/13 14:34:08;;;;;;;8.13;2.50;;;25.00;99.90;;;;;;5035003;28;20483;-78
2023/10/13 14:36:35;;;;;;;4.90;2.03;;;24.90;99.90;;;;;;5046119;28;20167;-78
2023/10/13 14:39:08;;;;;;;5.18;2.05;;;24.90;99.90;;;;;;5053288;28;20049;-78
2023/10/13 14:41:38;;;;;;;9.63;2.40;;;24.90;99.90;;;;;;5058475;28;20049;-77
2023/10/13 14:44:06;;;;;;;10.32;3.00;;;24.80;99.90;;;;;;5058645;28;20094;-77
2023/10/13 14:46:39;;;;;;;7.55;2.50;;;24.80;99.90;;;;;;5048746;28;20492;-78
2023/10/13 14:49:07;;;;;;;9.45;2.17;;;24.80;99.90;;;;;;5047755;28;20088;-77
2023/10/13 14:51:39;;;;;;;6.53;2.55;;;24.70;99.90;;;;;;5041332;28;20049;-77
2023/10/13 14:54:06;;;;;;;8.25;2.33;;;24.70;99.90;;;;;;5049277;28;20045;-77
2023/10/13 14:56:32;;;;;;;8.73;3.15;;;24.80;99.90;;;;;;5040462;28;20050;-77
2023/10/13 14:58:59;;;;;;;6.43;2.38;;;24.70;99.90;;;;;;5040356;28;20094;-77
2023/10/13 15:01:26;;;;;;;9.98;4.25;;;24.70;99.90;;;;;;5046452;28;20045;-77
2023/10/13 15:03:57;;;;;;;3.22;1.92;;;24.70;99.90;;;;;;5051022;28;20041;-78
2023/10/13 15:06:29;;;;;;;5.85;2.42;;;24.70;99.90;;;;;;5039526;28;20119;-78
2023/10/13 15:08:57;;;;;;;6.68;2.20;;;24.70;99.90;;;;;;5050777;28;20045;-77
2023/10/13 15:11:36;;;;;;;3.35;2.00;;;24.70;99.90;;;;;;5030166;28;20091;-78
2023/10/13 15:14:14;;;;;;;6.90;2.50;;;24.60;99.90;;;;;;5049009;28;20508;-78
2023/10/13 15:16:42;;;;;;;4.20;2.38;;;24.60;99.90;;;;;;5053990;28;20420;-78
2023/10/13 15:19:12;;;;;;;9.75;2.55;;;24.60;99.90;;;;;;5052428;28;20519;-78
2023/10/13 15:21:40;;;;;;;8.45;2.38;;;24.60;99.90;;;;;;5046946;28;20095;-78
2023/10/13 15:24:13;;;;;;;10.70;2.75;;;24.60;99.90;;;;;;5050402;28;20060;-78
2023/10/13 15:26:57;;;;;;;7.63;2.58;;;24.60;99.90;;;;;;5060062;28;20049;-78
2023/10/13 15:29:30;;;;;;;5.80;2.15;;;24.50;99.90;;;;;;5050957;28;20424;-78
2023/10/13 15:34:27;;;;;;;7.88;2.15;;;24.50;99.90;;;;;;5049444;28;20077;-78
2023/10/13 15:36:56;;;;;;;13.43;3.50;;;24.50;99.90;;;;;;5046719;28;20045;-78
2023/10/13 15:39:31;;;;;;;9.52;3.03;;;24.50;99.90;;;;;;5050631;28;20060;-79
2023/10/13 15:41:58;;;;;;;8.80;2.20;;;24.50;99.90;;;;;;5060176;28;20047;-78
2023/10/13 15:44:29;;;;;;;10.38;2.63;;;24.40;99.90;;;;;;5055335;28;20431;-78
2023/10/13 15:46:59;;;;;;;6.25;2.88;;;24.40;99.90;;;;;;5065934;22;20045;-82
2023/10/13 15:49:33;;;;;;;10.50;3.22;;;24.40;99.90;;;;;;5032068;28;20095;-82
2023/10/13 15:52:01;;;;;;;13.27;2.40;;;24.30;99.90;;;;;;5023491;28;20053;-81
2023/10/13 15:54:27;;;;;;;8.35;2.90;;;24.30;99.90;;;;;;5031443;28;20089;-80
2023/10/13 15:56:54;;;;;;;10.45;3.53;;;24.30;99.90;;;;;;5034972;28;20049;-81
2023/10/13 15:59:23;;;;;;;14.55;3.53;;;24.20;99.90;;;;;;5030678;28;20045;-82
2023/10/13 16:01:54;;;;;;;10.65;3.00;;;24.10;99.90;;;;;;5027973;28;20046;-80
2023/10/13 16:04:22;;;;;;;5.53;2.40;;;24.10;99.90;;;;;;5034346;28;20118;-81
2023/10/13 16:06:52;;;;;;;9.43;2.58;;;24.10;99.90;;;;;;5024196;28;20046;-80
2023/10/13 16:09:23;;;;;;;5.00;2.13;;;24.00;99.90;;;;;;5031714;28;20054;-81
2023/10/13 16:11:51;;;;;;;6.55;2.03;;;24.00;99.90;;;;;;5034809;28;20052;-80
2023/10/13 16:14:18;;;;;;;8.82;2.80;;;23.90;99.90;;;;;;5025917;28;20047;-83
2023/10/13 16:16:48;;;;;;;5.57;2.38;;;23.90;99.90;;;;;;5026360;28;20081;-79
2023/10/13 16:19:21;;;;;;;9.32;2.47;;;23.80;99.90;;;;;;5033155;28;20140;-83
2023/10/13 16:21:53;;;;;;;4.60;1.88;;;23.70;99.90;;;;;;5030311;28;20053;-82
2023/10/13 16:24:21;;;;;;;9.43;2.15;;;23.70;99.90;;;;;;5031022;28;20560;-81
2023/10/13 16:26:55;;;;;;;7.82;2.40;;;23.60;99.90;;;;;;5034965;28;20096;-83
2023/10/13 16:29:23;;;;;;;6.63;2.67;;;23.60;99.90;;;;;;5031213;28;20069;-83
2023/10/13 16:31:50;;;;;;;9.43;2.20;;;23.50;99.90;;;;;;5030078;28;20429;-81
2023/10/13 16:34:17;;;;;;;7.65;2.38;;;23.50;99.90;;;;;;5033469;28;20049;-83
2023/10/13 16:36:45;;;;;;;4.00;1.85;;;23.40;99.90;;;;;;5032133;28;20136;-82
2023/10/13 16:39:16;;;;;;;13.32;3.53;;;23.30;99.90;;;;;;5030018;28;20052;-80
2023/10/13 16:41:47;;;;;;;5.20;1.95;;;23.20;99.90;;;;;;5033299;28;20056;-81
2023/10/13 16:44:15;;;;;;;6.35;2.42;;;23.20;99.90;;;;;;5031364;28;20124;-82
2023/10/13 16:46:42;;;;;;;4.20;1.95;;;23.10;99.90;;;;;;5025877;28;20046;-81
2023/10/13 16:49:11;;;;;;;7.53;2.30;;;23.00;99.90;;;;;;5033312;28;20107;-81
2023/10/13 16:51:38;;;;;;;10.85;2.33;;;23.00;99.90;;;;;;5032527;28;20064;-81
2023/10/13 16:54:05;;;;;;;7.85;2.03;;;22.90;99.90;;;;;;5032603;28;20045;-82
2023/10/13 16:56:35;;;;;;;2.90;1.50;;;22.80;99.90;;;;;;5033164;28;20072;-82
2023/10/13 16:59:05;;;;;;;8.65;1.92;;;22.80;99.90;;;;;;5033178;28;20080;-82
2023/10/13 17:01:32;;;;;;;4.15;1.63;;;22.70;99.90;;;;;;5027906;28;20052;-82
2023/10/13 17:03:59;;;;;;;3.58;1.73;;;22.70;99.90;;;;;;5036871;28;20061;-81
2023/10/13 17:06:26;;;;;;;4.10;1.88;;;22.60;99.90;;;;;;5045491;28;20076;-81
2023/10/13 17:08:52;;;;;;;4.80;1.92;;;22.70;99.90;;;;;;5038274;28;20049;-83
2023/10/13 17:11:19;;;;;;;8.38;1.80;;;22.60;99.90;;;;;;5032942;28;20502;-82